Time;durP1;ratioP1;P1;durP2;ratioP2;P2;SDS_P1;SDS_P2;PMS_P1;PMS_P2;Temp;Humidity;BMP_temperature;BMP_pressure;BME280_temperature;BME280_humidity;BME280_pressure;Samples;Min_cycle;Max_cycle;Signal;HPM_P1;HPM_P2
2022/03/28 00:01:55;;;;;;;24.15;4.97;;;;;;;;;;5037007;28;20052;-70
2022/03/28 00:04:22;;;;;;;21.67;4.25;;;;;;;;;;5041441;28;20079;-70
2022/03/28 00:06:48;;;;;;;17.35;4.05;;;;;;;;;;5054089;28;20048;-70
2022/03/28 00:09:14;;;;;;;23.95;4.38;;;;;;;;;;5041944;28;20071;-69
2022/03/28 00:11:41;;;;;;;18.75;4.57;;;;;;;;;;5051848;28;20059;-69
2022/03/28 00:14:07;;;;;;;22.40;4.45;;;;;;;;;;5046660;28;20398;-70
2022/03/28 00:16:34;;;;;;;16.98;3.90;;;;;;;;;;5049389;28;20048;-69
2022/03/28 00:19:00;;;;;;;21.98;4.55;;;;;;;;;;5032849;28;20049;-69
2022/03/28 00:21:26;;;;;;;20.88;4.95;;;;;;;;;;5054127;28;20588;-69
2022/03/28 00:23:53;;;;;;;17.55;4.55;;;;;;;;;;5046073;28;20267;-69
2022/03/28 00:26:20;;;;;;;13.77;3.95;;;;;;;;;;5034959;28;20036;-70
2022/03/28 00:28:46;;;;;;;17.40;4.30;;;;;;;;;;5058411;28;20055;-69
2022/03/28 00:31:13;;;;;;;21.52;4.05;;;;;;;;;;5039913;28;20038;-69
2022/03/28 00:33:39;;;;;;;20.85;4.10;;;;;;;;;;5039563;28;20053;-69
2022/03/28 00:36:06;;;;;;;19.60;4.90;;;;;;;;;;5053905;28;20064;-69
2022/03/28 00:38:32;;;;;;;18.95;4.22;;;;;;;;;;5026152;28;20059;-69
2022/03/28 00:40:59;;;;;;;24.25;4.65;;;;;;;;;;5046226;28;20560;-69
2022/03/28 00:43:26;;;;;;;19.02;4.43;;;;;;;;;;5042417;28;20045;-70
2022/03/28 00:45:52;;;;;;;22.95;4.82;;;;;;;;;;5039660;28;20049;-70
2022/03/28 00:48:18;;;;;;;23.67;4.70;;;;;;;;;;5027228;28;20048;-70
2022/03/28 00:50:45;;;;;;;20.85;4.60;;;;;;;;;;5054935;28;20052;-70
2022/03/28 00:53:12;;;;;;;21.17;4.10;;;;;;;;;;5050572;28;20055;-70
2022/03/28 00:55:39;;;;;;;18.63;4.03;;;;;;;;;;5022077;28;20060;-70
2022/03/28 00:58:05;;;;;;;27.70;4.78;;;;;;;;;;5042424;28;20063;-70
2022/03/28 01:00:32;;;;;;;16.88;4.50;;;;;;;;;;5050434;28;20045;-70
2022/03/28 01:02:59;;;;;;;23.23;4.35;;;;;;;;;;5049617;28;20414;-71
2022/03/28 01:05:31;;;;;;;18.00;4.68;;;;;;;;;;5044348;28;20044;-70
2022/03/28 01:07:57;;;;;;;23.17;4.25;;;;;;;;;;5047031;28;20052;-70
2022/03/28 01:10:24;;;;;;;19.58;4.40;;;;;;;;;;5043129;28;20047;-71
2022/03/28 01:12:50;;;;;;;19.73;4.63;;;;;;;;;;5039880;28;20056;-70
2022/03/28 01:15:18;;;;;;;;;;;;;;;;;;5061066;28;20129;-70
2022/03/28 01:20:31;;;;;;;23.70;4.50;;;;;;;;;;5062794;28;20059;-70
2022/03/28 01:22:57;;;;;;;15.98;4.50;;;;;;;;;;5040881;28;20498;-70
2022/03/28 01:25:24;;;;;;;21.98;4.30;;;;;;;;;;5044476;28;20049;-70
2022/03/28 01:27:54;;;;;;;22.95;4.70;;;;;;;;;;5041778;28;20510;-70
2022/03/28 01:30:21;;;;;;;21.98;5.20;;;;;;;;;;5051209;28;20509;-70
2022/03/28 01:32:48;;;;;;;17.35;4.35;;;;;;;;;;5038838;28;20049;-70
2022/03/28 01:35:26;;;;;;;24.20;4.72;;;;;;;;;;5038418;28;20060;-70
2022/03/28 01:37:52;;;;;;;20.48;3.75;;;;;;;;;;5038812;28;20049;-70
2022/03/28 01:40:18;;;;;;;27.13;5.78;;;;;;;;;;5027187;28;20064;-70
2022/03/28 01:42:45;;;;;;;20.25;4.50;;;;;;;;;;5042405;28;20603;-70
2022/03/28 01:45:14;;;;;;;18.50;4.22;;;;;;;;;;5031788;28;20048;-70
2022/03/28 01:47:40;;;;;;;21.83;4.75;;;;;;;;;;5039015;28;20049;-70
2022/03/28 01:50:07;;;;;;;19.65;4.10;;;;;;;;;;5040947;28;20045;-70
2022/03/28 01:52:33;;;;;;;17.67;4.05;;;;;;;;;;5025616;28;20049;-72
2022/03/28 01:54:59;;;;;;;20.45;4.22;;;;;;;;;;5035142;28;20064;-70
2022/03/28 01:57:26;;;;;;;21.88;4.28;;;;;;;;;;5044612;28;20776;-69
2022/03/28 01:59:52;;;;;;;21.15;4.93;;;;;;;;;;5050045;28;20058;-69
2022/03/28 02:02:19;;;;;;;19.10;4.00;;;;;;;;;;5034657;28;20132;-69
2022/03/28 02:04:45;;;;;;;22.08;4.85;;;;;;;;;;5042259;28;20537;-69
2022/03/28 02:07:11;;;;;;;15.65;3.70;;;;;;;;;;5034740;28;20410;-69
2022/03/28 02:09:38;;;;;;;22.40;5.22;;;;;;;;;;5036390;28;20056;-70
2022/03/28 02:12:04;;;;;;;22.73;5.30;;;;;;;;;;5048603;28;20136;-69
2022/03/28 02:14:31;;;;;;;22.63;5.10;;;;;;;;;;5040964;28;20111;-70
2022/03/28 02:16:57;;;;;;;25.70;5.82;;;;;;;;;;5049251;28;20044;-69
2022/03/28 02:19:23;;;;;;;20.17;4.15;;;;;;;;;;5037675;28;20765;-69
2022/03/28 02:21:50;;;;;;;21.75;4.80;;;;;;;;;;5029842;28;20072;-69
2022/03/28 02:24:16;;;;;;;17.88;4.63;;;;;;;;;;5042501;28;20045;-69
2022/03/28 02:26:42;;;;;;;26.52;5.93;;;;;;;;;;5026203;28;20044;-69
2022/03/28 02:29:09;;;;;;;23.13;5.20;;;;;;;;;;5039254;28;20049;-69
2022/03/28 02:31:35;;;;;;;24.08;5.32;;;;;;;;;;5038407;28;20041;-69
2022/03/28 02:34:01;;;;;;;26.17;5.05;;;;;;;;;;5045607;28;20282;-69
2022/03/28 02:36:27;;;;;;;24.75;5.30;;;;;;;;;;5022889;28;20052;-67
2022/03/28 02:38:54;;;;;;;24.08;6.32;;;;;;;;;;5042737;28;20462;-67
2022/03/28 02:41:20;;;;;;;23.27;4.70;;;;;;;;;;5048937;28;20048;-68
2022/03/28 02:43:46;;;;;;;19.50;5.18;;;;;;;;;;5046390;28;20036;-68
2022/03/28 02:46:13;;;;;;;20.08;5.00;;;;;;;;;;5027403;28;20897;-68
2022/03/28 02:48:39;;;;;;;18.67;5.35;;;;;;;;;;5032557;28;20075;-67
2022/03/28 02:51:06;;;;;;;19.50;5.40;;;;;;;;;;5047001;28;20763;-68
2022/03/28 02:53:32;;;;;;;23.67;5.68;;;;;;;;;;5043178;28;20045;-68
2022/03/28 02:55:59;;;;;;;19.25;4.50;;;;;;;;;;5042270;28;20047;-69
2022/03/28 02:58:26;;;;;;;22.23;4.85;;;;;;;;;;5051127;28;20055;-68
2022/03/28 03:00:52;;;;;;;22.13;5.50;;;;;;;;;;5032803;28;20245;-68
2022/03/28 03:03:18;;;;;;;20.58;5.40;;;;;;;;;;5049809;28;20041;-68
2022/03/28 03:05:46;;;;;;;19.45;4.95;;;;;;;;;;5042356;28;20076;-69
2022/03/28 03:08:12;;;;;;;27.30;5.80;;;;;;;;;;5041861;28;20052;-68
2022/03/28 03:10:39;;;;;;;19.95;5.25;;;;;;;;;;5047014;28;20052;-68
2022/03/28 03:13:05;;;;;;;24.10;6.40;;;;;;;;;;5022358;28;20052;-68
2022/03/28 03:15:32;;;;;;;21.25;5.65;;;;;;;;;;5044368;28;20049;-68
2022/03/28 03:17:58;;;;;;;19.63;5.20;;;;;;;;;;5038290;28;20048;-68
2022/03/28 03:20:24;;;;;;;24.20;6.35;;;;;;;;;;5047302;28;20099;-68
2022/03/28 03:22:51;;;;;;;22.50;5.50;;;;;;;;;;5043100;28;20045;-69
2022/03/28 03:25:17;;;;;;;23.38;5.82;;;;;;;;;;5035174;28;20053;-69
2022/03/28 03:27:43;;;;;;;19.13;5.65;;;;;;;;;;5032795;28;20057;-69
2022/03/28 03:30:10;;;;;;;22.75;5.75;;;;;;;;;;5029422;28;20497;-69
2022/03/28 03:32:37;;;;;;;21.85;5.50;;;;;;;;;;5045199;28;20056;-69
2022/03/28 03:35:03;;;;;;;16.63;5.22;;;;;;;;;;5023575;28;20059;-69
2022/03/28 03:37:30;;;;;;;18.63;6.15;;;;;;;;;;5041856;28;20774;-69
2022/03/28 03:39:56;;;;;;;14.13;4.88;;;;;;;;;;5044651;28;20045;-69
2022/03/28 03:42:22;;;;;;;26.83;6.07;;;;;;;;;;5050252;28;20053;-69
2022/03/28 03:44:48;;;;;;;22.13;5.75;;;;;;;;;;5045066;28;20147;-69
2022/03/28 03:47:15;;;;;;;17.90;6.00;;;;;;;;;;5040670;28;20052;-69
2022/03/28 03:49:41;;;;;;;21.83;5.97;;;;;;;;;;5033966;28;20060;-69
2022/03/28 03:52:07;;;;;;;18.95;5.10;;;;;;;;;;5048507;28;20553;-69
2022/03/28 03:54:34;;;;;;;19.80;5.45;;;;;;;;;;5049077;28;20048;-69
2022/03/28 03:57:00;;;;;;;19.90;5.68;;;;;;;;;;5034637;28;20049;-69
2022/03/28 03:59:26;;;;;;;17.90;6.00;;;;;;;;;;5026527;28;20064;-69
2022/03/28 04:01:53;;;;;;;15.10;5.53;;;;;;;;;;5043456;28;20060;-69
2022/03/28 04:04:19;;;;;;;19.23;6.05;;;;;;;;;;5038979;28;20053;-69
2022/03/28 04:06:46;;;;;;;23.48;6.07;;;;;;;;;;5040299;28;20052;-69
2022/03/28 04:09:12;;;;;;;20.00;6.35;;;;;;;;;;5033248;28;20040;-69
2022/03/28 04:11:38;;;;;;;19.08;6.15;;;;;;;;;;5041058;28;20080;-69
2022/03/28 04:14:05;;;;;;;19.75;5.70;;;;;;;;;;5041083;28;20911;-69
2022/03/28 04:16:31;;;;;;;21.42;6.25;;;;;;;;;;5051148;28;20049;-69
2022/03/28 04:18:58;;;;;;;16.92;5.47;;;;;;;;;;5054192;28;20477;-69
2022/03/28 04:21:24;;;;;;;14.25;5.25;;;;;;;;;;5037491;28;20061;-69
2022/03/28 04:23:50;;;;;;;20.33;5.80;;;;;;;;;;5035582;28;20053;-69
2022/03/28 04:26:17;;;;;;;16.63;5.25;;;;;;;;;;5039828;28;20421;-69
2022/03/28 04:28:43;;;;;;;13.55;5.38;;;;;;;;;;5043610;28;20392;-69
2022/03/28 04:31:09;;;;;;;16.63;5.82;;;;;;;;;;5036944;28;20866;-69
2022/03/28 04:33:36;;;;;;;19.05;5.43;;;;;;;;;;5053773;28;20715;-69
2022/03/28 04:36:03;;;;;;;18.83;5.78;;;;;;;;;;5060872;28;20059;-69
2022/03/28 04:38:30;;;;;;;21.98;5.18;;;;;;;;;;5033330;28;20429;-69
2022/03/28 04:40:56;;;;;;;15.50;5.57;;;;;;;;;;5049372;28;20053;-69
2022/03/28 04:43:22;;;;;;;17.42;5.05;;;;;;;;;;5027506;28;20041;-69
2022/03/28 04:45:48;;;;;;;16.85;5.45;;;;;;;;;;5044147;28;20045;-70
2022/03/28 04:48:15;;;;;;;18.27;5.75;;;;;;;;;;5040642;28;20674;-69
2022/03/28 04:50:41;;;;;;;16.70;5.35;;;;;;;;;;5042185;28;20045;-69
2022/03/28 04:53:07;;;;;;;19.00;6.38;;;;;;;;;;5030224;28;20513;-69
2022/03/28 04:55:34;;;;;;;18.17;6.55;;;;;;;;;;5030731;28;20051;-69
2022/03/28 04:58:00;;;;;;;20.05;6.35;;;;;;;;;;5048364;28;20063;-69
2022/03/28 05:00:27;;;;;;;14.63;5.88;;;;;;;;;;5034358;28;20050;-69
2022/03/28 05:02:54;;;;;;;21.77;6.65;;;;;;;;;;5029878;28;20056;-69
2022/03/28 05:05:20;;;;;;;21.23;7.22;;;;;;;;;;5020808;28;20825;-69
2022/03/28 05:07:46;;;;;;;14.80;6.25;;;;;;;;;;5024197;28;20057;-69
2022/03/28 05:10:13;;;;;;;18.95;7.25;;;;;;;;;;5042518;28;20064;-69
2022/03/28 05:12:39;;;;;;;17.77;6.38;;;;;;;;;;5047089;28;20052;-69
2022/03/28 05:15:06;;;;;;;17.15;6.63;;;;;;;;;;5055104;28;20060;-69
2022/03/28 05:17:32;;;;;;;18.08;6.60;;;;;;;;;;5039070;28;20048;-69
2022/03/28 05:19:59;;;;;;;18.77;7.35;;;;;;;;;;5007040;28;20280;-72
2022/03/28 05:22:25;;;;;;;20.52;6.50;;;;;;;;;;5028309;28;20140;-69
2022/03/28 05:24:52;;;;;;;19.13;6.82;;;;;;;;;;5033410;28;20099;-69
2022/03/28 05:27:19;;;;;;;15.15;6.95;;;;;;;;;;5031897;28;20052;-69
2022/03/28 05:29:46;;;;;;;21.73;6.97;;;;;;;;;;5021881;28;20053;-69
2022/03/28 05:32:12;;;;;;;17.58;6.70;;;;;;;;;;5041914;28;20048;-69
2022/03/28 05:34:38;;;;;;;23.38;6.30;;;;;;;;;;5052569;28;20044;-69
2022/03/28 05:37:06;;;;;;;20.30;6.90;;;;;;;;;;5044878;28;20066;-69
2022/03/28 05:39:33;;;;;;;22.40;7.18;;;;;;;;;;5035083;28;20048;-69
2022/03/28 05:41:59;;;;;;;37.22;8.73;;;;;;;;;;5043975;28;20055;-69
2022/03/28 05:44:26;;;;;;;21.42;6.90;;;;;;;;;;5027752;28;20061;-69
2022/03/28 05:46:52;;;;;;;29.33;7.63;;;;;;;;;;5027326;28;20084;-69
2022/03/28 05:49:25;;;;;;;15.60;6.78;;;;;;;;;;5038186;28;20041;-69
2022/03/28 05:51:52;;;;;;;23.00;7.32;;;;;;;;;;5029466;28;20058;-69
2022/03/28 05:54:19;;;;;;;18.13;7.65;;;;;;;;;;5029483;28;20042;-69
2022/03/28 05:56:46;;;;;;;20.65;7.75;;;;;;;;;;5027582;28;20784;-69
2022/03/28 05:59:13;;;;;;;22.95;7.50;;;;;;;;;;5039281;28;20047;-69
2022/03/28 06:01:39;;;;;;;18.55;7.05;;;;;;;;;;5048517;28;20052;-69
2022/03/28 06:04:06;;;;;;;20.27;7.93;;;;;;;;;;5042056;28;20695;-69
2022/03/28 06:06:33;;;;;;;20.48;7.22;;;;;;;;;;5027162;28;20040;-69
2022/03/28 06:08:59;;;;;;;19.95;7.88;;;;;;;;;;5036816;28;20052;-69
2022/03/28 06:11:26;;;;;;;17.83;7.90;;;;;;;;;;5047800;28;20076;-69
2022/03/28 06:13:53;;;;;;;17.98;8.48;;;;;;;;;;5064157;28;20048;-69
2022/03/28 06:16:20;;;;;;;18.45;8.40;;;;;;;;;;5039339;28;20052;-69
2022/03/28 06:18:46;;;;;;;20.95;8.77;;;;;;;;;;5044735;28;20076;-69
2022/03/28 06:21:12;;;;;;;19.40;8.30;;;;;;;;;;5034026;28;20414;-69
2022/03/28 06:23:38;;;;;;;24.73;8.52;;;;;;;;;;5042214;28;20061;-69
2022/03/28 06:26:05;;;;;;;16.65;8.80;;;;;;;;;;5048930;28;20055;-69
2022/03/28 06:28:32;;;;;;;16.80;9.23;;;;;;;;;;5060384;28;20515;-69
2022/03/28 06:30:59;;;;;;;19.33;9.57;;;;;;;;;;5039960;28;20250;-69
2022/03/28 06:33:25;;;;;;;25.88;9.23;;;;;;;;;;5052967;28;20548;-69
2022/03/28 06:35:56;;;;;;;17.52;9.10;;;;;;;;;;5054641;28;20055;-69
2022/03/28 06:38:22;;;;;;;14.18;7.72;;;;;;;;;;5041057;28;20049;-69
2022/03/28 06:40:49;;;;;;;15.20;8.45;;;;;;;;;;5050613;28;20056;-69
2022/03/28 06:43:15;;;;;;;18.45;8.20;;;;;;;;;;5047352;28;20044;-69
2022/03/28 06:45:42;;;;;;;14.80;7.95;;;;;;;;;;5056093;28;20053;-69
2022/03/28 06:48:08;;;;;;;15.35;7.63;;;;;;;;;;5041816;28;20049;-69
2022/03/28 06:50:54;;;;;;;15.55;8.50;;;;;;;;;;5054159;28;20056;-69
2022/03/28 06:53:21;;;;;;;21.70;7.70;;;;;;;;;;5048140;28;20075;-70
2022/03/28 06:55:47;;;;;;;12.73;7.65;;;;;;;;;;5031584;28;20062;-69
2022/03/28 06:58:14;;;;;;;12.23;7.15;;;;;;;;;;5053410;28;20419;-69
2022/03/28 07:00:40;;;;;;;13.82;8.18;;;;;;;;;;5011929;28;20057;-69
2022/03/28 07:03:07;;;;;;;12.63;7.68;;;;;;;;;;5032827;28;20053;-69
2022/03/28 07:05:34;;;;;;;18.05;8.88;;;;;;;;;;5049437;28;20056;-69
2022/03/28 07:08:00;;;;;;;15.13;7.90;;;;;;;;;;5044773;28;20049;-69
2022/03/28 07:10:27;;;;;;;15.00;7.63;;;;;;;;;;5052971;28;20131;-69
2022/03/28 07:12:59;;;;;;;15.98;8.07;;;;;;;;;;5028959;28;20925;-69
2022/03/28 07:15:27;;;;;;;17.02;8.43;;;;;;;;;;5030347;28;20049;-69
2022/03/28 07:17:56;;;;;;;15.77;8.13;;;;;;;;;;5033739;28;20416;-69
2022/03/28 07:20:22;;;;;;;;;;;;;;;;;;5040035;28;20337;-69
2022/03/28 07:22:49;;;;;;;16.92;8.18;;;;;;;;;;5043507;28;19924;-69
2022/03/28 07:25:15;;;;;;;18.35;8.60;;;;;;;;;;5011178;28;20269;-69
2022/03/28 07:27:42;;;;;;;15.43;9.07;;;;;;;;;;5040202;28;20063;-69
2022/03/28 07:30:09;;;;;;;17.08;9.10;;;;;;;;;;5033383;28;20048;-69
2022/03/28 07:32:35;;;;;;;18.27;9.20;;;;;;;;;;5015467;28;20403;-69
2022/03/28 07:35:02;;;;;;;19.92;8.95;;;;;;;;;;5029577;28;20446;-70
2022/03/28 07:37:28;;;;;;;15.02;7.85;;;;;;;;;;5039996;28;20469;-69
2022/03/28 07:39:55;;;;;;;18.60;10.10;;;;;;;;;;5043794;28;20048;-69
2022/03/28 07:42:21;;;;;;;21.50;10.65;;;;;;;;;;5026846;28;20045;-69
2022/03/28 07:44:48;;;;;;;20.50;10.07;;;;;;;;;;5036702;28;20698;-69
2022/03/28 07:47:19;;;;;;;20.73;9.70;;;;;;;;;;5024067;28;20048;-69
2022/03/28 07:49:45;;;;;;;25.10;9.93;;;;;;;;;;5042202;28;20061;-69
2022/03/28 07:52:12;;;;;;;35.63;11.85;;;;;;;;;;5035535;28;20161;-69
2022/03/28 07:54:38;;;;;;;25.80;10.55;;;;;;;;;;5035514;28;20738;-69
2022/03/28 07:57:05;;;;;;;23.80;10.95;;;;;;;;;;5024572;28;20046;-69
2022/03/28 07:59:31;;;;;;;23.83;11.05;;;;;;;;;;5017928;28;20046;-69
2022/03/28 08:01:58;;;;;;;37.17;12.13;;;;;;;;;;5034349;28;20049;-69
2022/03/28 08:04:24;;;;;;;42.08;11.93;;;;;;;;;;5034275;28;20049;-69
2022/03/28 08:06:50;;;;;;;34.35;13.80;;;;;;;;;;5048464;28;20749;-69
2022/03/28 08:09:17;;;;;;;31.75;12.30;;;;;;;;;;5038842;28;20588;-69
2022/03/28 08:11:44;;;;;;;37.10;12.63;;;;;;;;;;5022578;28;20049;-69
2022/03/28 08:14:10;;;;;;;22.25;11.63;;;;;;;;;;5031622;28;20778;-68
2022/03/28 08:16:37;;;;;;;19.80;10.88;;;;;;;;;;5021707;28;20172;-69
2022/03/28 08:19:03;;;;;;;20.17;11.73;;;;;;;;;;5035318;28;20060;-68
2022/03/28 08:21:30;;;;;;;23.02;11.15;;;;;;;;;;5034542;28;20068;-68
2022/03/28 08:23:56;;;;;;;20.63;11.05;;;;;;;;;;5031285;28;20061;-68
2022/03/28 08:26:22;;;;;;;22.98;11.48;;;;;;;;;;5028005;28;20056;-68
2022/03/28 08:28:48;;;;;;;18.73;10.55;;;;;;;;;;5022803;28;20064;-68
2022/03/28 08:31:15;;;;;;;19.80;10.80;;;;;;;;;;5038913;28;20049;-68
2022/03/28 08:33:41;;;;;;;19.25;10.43;;;;;;;;;;5031982;28;20049;-69
2022/03/28 08:36:08;;;;;;;25.65;11.65;;;;;;;;;;5034875;28;20057;-69
2022/03/28 08:38:35;;;;;;;22.58;11.07;;;;;;;;;;5020201;28;20357;-68
2022/03/28 08:41:02;;;;;;;18.95;10.65;;;;;;;;;;5032170;28;20041;-68
2022/03/28 08:43:29;;;;;;;23.42;11.60;;;;;;;;;;5025526;28;20446;-68
2022/03/28 08:45:56;;;;;;;24.27;12.88;;;;;;;;;;5016796;28;20049;-69
2022/03/28 08:48:22;;;;;;;26.92;12.20;;;;;;;;;;5041743;28;20406;-68
2022/03/28 08:50:49;;;;;;;27.48;13.55;;;;;;;;;;5026672;28;20345;-68
2022/03/28 08:53:16;;;;;;;27.30;12.23;;;;;;;;;;5032447;28;20387;-68
2022/03/28 08:55:43;;;;;;;22.15;11.10;;;;;;;;;;5012891;28;20087;-68
2022/03/28 08:58:10;;;;;;;20.70;10.55;;;;;;;;;;5031623;28;20441;-68
2022/03/28 09:00:37;;;;;;;25.17;12.70;;;;;;;;;;5039111;28;20193;-68
2022/03/28 09:03:04;;;;;;;26.67;14.70;;;;;;;;;;5018449;28;20055;-69
2022/03/28 09:05:31;;;;;;;29.88;16.02;;;;;;;;;;5033333;28;20049;-68
2022/03/28 09:07:58;;;;;;;28.20;16.27;;;;;;;;;;5023517;28;20508;-68
2022/03/28 09:10:28;;;;;;;25.17;14.38;;;;;;;;;;5032765;28;20064;-68
2022/03/28 09:12:57;;;;;;;25.75;14.57;;;;;;;;;;5039068;28;20052;-68
2022/03/28 09:15:23;;;;;;;30.20;15.98;;;;;;;;;;5009421;28;20438;-68
2022/03/28 09:17:58;;;;;;;30.25;16.52;;;;;;;;;;5031240;28;20041;-68
2022/03/28 09:20:25;;;;;;;27.38;14.55;;;;;;;;;;5027072;28;20040;-68
2022/03/28 09:22:51;;;;;;;22.90;12.52;;;;;;;;;;5034779;28;20040;-68
2022/03/28 09:25:21;;;;;;;22.83;13.13;;;;;;;;;;5021928;28;20464;-69
2022/03/28 09:27:49;;;;;;;22.05;11.00;;;;;;;;;;5044122;28;20063;-68
2022/03/28 09:30:19;;;;;;;22.77;11.38;;;;;;;;;;5027845;28;20406;-68
2022/03/28 09:32:47;;;;;;;18.73;9.43;;;;;;;;;;5018505;28;20045;-68
2022/03/28 09:35:20;;;;;;;18.90;10.52;;;;;;;;;;5024866;28;20416;-71
2022/03/28 09:37:50;;;;;;;19.02;10.55;;;;;;;;;;5033670;28;20068;-68
2022/03/28 09:40:25;;;;;;;18.73;9.30;;;;;;;;;;5033912;28;20052;-68
2022/03/28 09:42:52;;;;;;;29.13;11.25;;;;;;;;;;5017651;28;20063;-68
2022/03/28 09:45:22;;;;;;;18.83;9.70;;;;;;;;;;5021710;28;20049;-68
2022/03/28 09:47:55;;;;;;;17.85;10.18;;;;;;;;;;5034671;28;20458;-68
2022/03/28 09:50:29;;;;;;;19.45;9.75;;;;;;;;;;5007222;28;20053;-69
2022/03/28 09:53:10;;;;;;;23.02;10.15;;;;;;;;;;5026683;28;20346;-69
2022/03/28 09:55:56;;;;;;;20.15;10.45;;;;;;;;;;5012134;28;20430;-69
2022/03/28 09:58:36;;;;;;;15.52;8.95;;;;;;;;;;5032663;28;20049;-69
2022/03/28 10:01:07;;;;;;;15.65;8.98;;;;;;;;;;5042540;28;20401;-70
2022/03/28 10:03:35;;;;;;;18.00;9.02;;;;;;;;;;5017577;28;20137;-69
2022/03/28 10:06:03;;;;;;;23.27;10.43;;;;;;;;;;5016064;28;20048;-69
2022/03/28 10:08:30;;;;;;;17.20;9.23;;;;;;;;;;5034430;28;20053;-70
2022/03/28 10:10:58;;;;;;;15.93;8.80;;;;;;;;;;5044386;28;20073;-68
2022/03/28 10:13:25;;;;;;;20.45;10.30;;;;;;;;;;5037630;28;20048;-69
2022/03/28 10:15:52;;;;;;;17.08;9.80;;;;;;;;;;5048594;28;20148;-69
2022/03/28 10:18:18;;;;;;;16.35;9.80;;;;;;;;;;5021981;28;20337;-69
2022/03/28 10:20:46;;;;;;;15.50;9.60;;;;;;;;;;5050151;28;20131;-68
2022/03/28 10:23:15;;;;;;;17.60;10.40;;;;;;;;;;5038395;28;20041;-68
2022/03/28 10:25:42;;;;;;;18.40;10.23;;;;;;;;;;5035531;28;20045;-68
2022/03/28 10:28:09;;;;;;;16.30;10.20;;;;;;;;;;5038918;28;20053;-69
2022/03/28 10:30:35;;;;;;;20.20;10.13;;;;;;;;;;5034778;28;20067;-68
2022/03/28 10:33:12;;;;;;;19.17;10.38;;;;;;;;;;5043106;28;20045;-68
2022/03/28 10:35:38;;;;;;;17.00;9.80;;;;;;;;;;5032562;28;20056;-67
2022/03/28 10:38:18;;;;;;;17.85;10.90;;;;;;;;;;5042389;28;20049;-68
2022/03/28 10:40:53;;;;;;;19.73;10.77;;;;;;;;;;5029087;28;20578;-69
2022/03/28 10:43:21;;;;;;;16.50;10.75;;;;;;;;;;5031976;28;20076;-68
2022/03/28 10:45:49;;;;;;;21.13;11.00;;;;;;;;;;5027447;28;20502;-68
2022/03/28 10:48:16;;;;;;;19.85;10.88;;;;;;;;;;5039074;28;20136;-68
2022/03/28 10:50:44;;;;;;;16.60;11.27;;;;;;;;;;5020060;28;20049;-68
2022/03/28 10:53:12;;;;;;;16.75;10.73;;;;;;;;;;5028962;28;20449;-68
2022/03/28 10:55:41;;;;;;;18.90;10.80;;;;;;;;;;5041594;28;20048;-69
2022/03/28 10:58:12;;;;;;;14.90;9.82;;;;;;;;;;5026379;28;20316;-69
2022/03/28 11:00:38;;;;;;;19.08;10.85;;;;;;;;;;5031831;28;20060;-68
2022/03/28 11:03:05;;;;;;;18.38;10.88;;;;;;;;;;5041564;28;20049;-70
2022/03/28 11:05:51;;;;;;;18.80;11.60;;;;;;;;;;5047467;28;20577;-70
2022/03/28 11:08:33;;;;;;;17.15;10.25;;;;;;;;;;5044598;28;20049;-70
2022/03/28 11:11:20;;;;;;;17.92;10.82;;;;;;;;;;5039090;28;20044;-70
2022/03/28 11:13:56;;;;;;;20.08;10.77;;;;;;;;;;5043428;28;20422;-70
2022/03/28 11:16:38;;;;;;;20.70;11.73;;;;;;;;;;5017981;28;20068;-70
2022/03/28 11:19:20;;;;;;;24.95;11.57;;;;;;;;;;5053182;28;20160;-70
2022/03/28 11:22:00;;;;;;;19.98;11.68;;;;;;;;;;5029719;28;20076;-70
2022/03/28 11:24:45;;;;;;;18.95;11.32;;;;;;;;;;5042918;28;20143;-70
2022/03/28 11:27:16;;;;;;;18.50;10.75;;;;;;;;;;5032818;28;20053;-70
2022/03/28 11:29:43;;;;;;;17.50;11.63;;;;;;;;;;5030219;28;20052;-71
2022/03/28 11:32:15;;;;;;;19.80;12.23;;;;;;;;;;5041145;28;20464;-70
2022/03/28 11:34:48;;;;;;;20.65;11.65;;;;;;;;;;5026605;28;20133;-70
2022/03/28 11:37:15;;;;;;;19.60;11.18;;;;;;;;;;5045168;28;20442;-70
2022/03/28 11:39:54;;;;;;;15.82;10.70;;;;;;;;;;5030956;28;20540;-70
2022/03/28 11:42:25;;;;;;;18.63;10.82;;;;;;;;;;5030597;28;20055;-70
2022/03/28 11:44:52;;;;;;;20.65;11.80;;;;;;;;;;5011264;28;20562;-70
2022/03/28 11:47:19;;;;;;;18.63;11.13;;;;;;;;;;5043307;28;20057;-70
2022/03/28 11:50:04;;;;;;;17.92;11.57;;;;;;;;;;5034986;28;20053;-70
2022/03/28 11:52:31;;;;;;;16.15;11.13;;;;;;;;;;5031644;28;20592;-68
2022/03/28 11:54:58;;;;;;;15.85;11.18;;;;;;;;;;5023294;28;20095;-70
2022/03/28 12:00:13;;;;;;;;;;;;;;;;;;5036555;28;20048;-70
2022/03/28 12:02:46;;;;;;;18.52;12.20;;;;;;;;;;5021903;28;20256;-70
2022/03/28 12:05:12;;;;;;;16.10;11.88;;;;;;;;;;5031864;28;20132;-69
2022/03/28 12:07:40;;;;;;;21.92;12.32;;;;;;;;;;5036138;28;20055;-70
2022/03/28 12:10:08;;;;;;;16.08;9.82;;;;;;;;;;5028188;28;20518;-71
2022/03/28 12:12:34;;;;;;;;;;;;;;;;;;5037346;28;20045;-70
2022/03/28 12:15:01;;;;;;;20.52;11.55;;;;;;;;;;5031810;28;20241;-69
2022/03/28 12:17:27;;;;;;;18.88;12.13;;;;;;;;;;5031747;28;20402;-69
2022/03/28 12:20:04;;;;;;;17.05;11.80;;;;;;;;;;5025075;28;20060;-70
2022/03/28 12:22:42;;;;;;;19.88;11.90;;;;;;;;;;5038893;28;20049;-70
2022/03/28 12:25:21;;;;;;;19.25;11.02;;;;;;;;;;5013666;28;20555;-70
2022/03/28 12:27:51;;;;;;;19.48;12.30;;;;;;;;;;5036420;28;20091;-69
2022/03/28 12:30:17;;;;;;;19.25;11.23;;;;;;;;;;5045976;28;20045;-69
2022/03/28 12:32:44;;;;;;;17.77;11.50;;;;;;;;;;5034041;28;20049;-69
2022/03/28 12:35:10;;;;;;;25.13;12.25;;;;;;;;;;5035051;28;20068;-70
2022/03/28 12:37:36;;;;;;;20.77;12.35;;;;;;;;;;5025714;28;20430;-70
2022/03/28 12:40:03;;;;;;;21.70;11.98;;;;;;;;;;5032145;28;20479;-70
2022/03/28 12:42:35;;;;;;;21.92;11.77;;;;;;;;;;5027207;28;20041;-70
2022/03/28 12:45:01;;;;;;;17.25;10.00;;;;;;;;;;5043951;28;20052;-70
2022/03/28 12:47:28;;;;;;;20.90;12.05;;;;;;;;;;5050497;28;20076;-70
2022/03/28 12:49:55;;;;;;;19.30;12.77;;;;;;;;;;5006001;28;20056;-70
2022/03/28 12:52:24;;;;;;;22.58;12.45;;;;;;;;;;5044871;28;20517;-70
2022/03/28 12:54:54;;;;;;;21.85;12.40;;;;;;;;;;5031441;28;20689;-70
2022/03/28 12:57:26;;;;;;;16.33;11.07;;;;;;;;;;5033679;28;20795;-70
2022/03/28 12:59:54;;;;;;;20.80;13.43;;;;;;;;;;5033083;28;20053;-70
2022/03/28 13:02:20;;;;;;;28.13;13.47;;;;;;;;;;5054183;28;20044;-70
2022/03/28 13:04:51;;;;;;;20.88;12.73;;;;;;;;;;5037088;28;20421;-70
2022/03/28 13:07:18;;;;;;;20.52;12.10;;;;;;;;;;5021526;28;20111;-70
2022/03/28 13:09:55;;;;;;;21.88;13.40;;;;;;;;;;5051323;28;20132;-70
2022/03/28 13:12:31;;;;;;;22.27;12.95;;;;;;;;;;5045202;28;20573;-70
2022/03/28 13:14:57;;;;;;;21.00;12.48;;;;;;;;;;5043089;28;20509;-70
2022/03/28 13:17:24;;;;;;;22.33;13.30;;;;;;;;;;5033984;28;20045;-70
2022/03/28 13:19:54;;;;;;;23.30;13.13;;;;;;;;;;5036396;28;20049;-70
2022/03/28 13:22:27;;;;;;;20.48;12.77;;;;;;;;;;5037719;28;20052;-70
2022/03/28 13:25:10;;;;;;;20.85;13.02;;;;;;;;;;5039715;28;20472;-70
2022/03/28 13:30:24;;;;;;;24.90;12.60;;;;;;;;;;5022599;28;20390;-70
2022/03/28 13:32:50;;;;;;;19.95;12.68;;;;;;;;;;5022302;28;20072;-70
2022/03/28 13:35:17;;;;;;;26.25;13.73;;;;;;;;;;5028144;28;20045;-71
2022/03/28 13:37:52;;;;;;;24.25;13.00;;;;;;;;;;5042745;28;20067;-70
2022/03/28 13:40:19;;;;;;;26.63;13.77;;;;;;;;;;5035423;28;20533;-70
2022/03/28 13:42:46;;;;;;;26.33;14.55;;;;;;;;;;5032793;28;20053;-71
2022/03/28 13:45:18;;;;;;;19.50;13.13;;;;;;;;;;5038441;28;20477;-70
2022/03/28 13:47:45;;;;;;;23.90;13.90;;;;;;;;;;5029627;28;20053;-71
2022/03/28 13:50:11;;;;;;;25.88;13.48;;;;;;;;;;5035439;28;20056;-70
2022/03/28 13:52:58;;;;;;;26.77;13.50;;;;;;;;;;5040666;28;20537;-71
2022/03/28 13:55:25;;;;;;;23.83;13.75;;;;;;;;;;5018572;28;20053;-71
2022/03/28 13:57:52;;;;;;;28.80;13.35;;;;;;;;;;5031230;28;20051;-71
2022/03/28 14:00:19;;;;;;;22.42;13.23;;;;;;;;;;5030421;28;20060;-70
2022/03/28 14:03:05;;;;;;;21.55;11.90;;;;;;;;;;5028927;28;20418;-70
2022/03/28 14:05:32;;;;;;;21.85;11.98;;;;;;;;;;5038585;28;20045;-70
2022/03/28 14:08:00;;;;;;;21.70;12.85;;;;;;;;;;5037137;28;20433;-70
2022/03/28 14:10:26;;;;;;;22.13;14.45;;;;;;;;;;5024129;28;20055;-70
2022/03/28 14:12:53;;;;;;;24.33;13.70;;;;;;;;;;5036991;28;20060;-70
2022/03/28 14:15:19;;;;;;;24.88;13.68;;;;;;;;;;5030086;28;20064;-71
2022/03/28 14:17:45;;;;;;;27.42;14.35;;;;;;;;;;5037942;28;20525;-71
2022/03/28 14:20:14;;;;;;;23.05;13.30;;;;;;;;;;5041701;28;20577;-70
2022/03/28 14:22:41;;;;;;;21.20;13.23;;;;;;;;;;5024055;28;20132;-71
2022/03/28 14:25:08;;;;;;;25.08;13.52;;;;;;;;;;5027444;28;20156;-72
2022/03/28 14:27:35;;;;;;;24.27;13.48;;;;;;;;;;5027999;28;20125;-71
2022/03/28 14:30:01;;;;;;;24.52;13.82;;;;;;;;;;5036884;28;20052;-70
2022/03/28 14:32:27;;;;;;;25.52;13.18;;;;;;;;;;5034360;28;20059;-70
2022/03/28 14:34:54;;;;;;;22.17;12.65;;;;;;;;;;5025647;28;20414;-70
2022/03/28 14:37:21;;;;;;;22.75;12.25;;;;;;;;;;5046588;28;20048;-70
2022/03/28 14:39:48;;;;;;;24.00;13.00;;;;;;;;;;5010967;28;20057;-71